sensor_id;sensor_type;location;lat;lon;timestamp;P1;durP1;ratioP1;P2;durP2;ratioP2
15281;SDS011;7742;44.320;19.820;2022-08-04T00:01:16;17.03;;;16.23;;
15281;SDS011;7742;44.320;19.820;2022-08-04T00:03:48;17.00;;;16.20;;
15281;SDS011;7742;44.320;19.820;2022-08-04T00:06:20;16.77;;;15.97;;
15281;SDS011;7742;44.320;19.820;2022-08-04T00:08:54;17.00;;;16.20;;
15281;SDS011;7742;44.320;19.820;2022-08-04T00:11:23;17.03;;;16.17;;
15281;SDS011;7742;44.320;19.820;2022-08-04T00:13:52;16.90;;;16.13;;
15281;SDS011;7742;44.320;19.820;2022-08-04T00:16:21;17.30;;;16.30;;
15281;SDS011;7742;44.320;19.820;2022-08-04T00:18:52;16.70;;;15.90;;
15281;SDS011;7742;44.320;19.820;2022-08-04T00:21:22;16.93;;;16.13;;
15281;SDS011;7742;44.320;19.820;2022-08-04T00:23:53;17.37;;;16.47;;
15281;SDS011;7742;44.320;19.820;2022-08-04T00:26:21;16.47;;;15.77;;
15281;SDS011;7742;44.320;19.820;2022-08-04T00:28:49;17.20;;;16.40;;
15281;SDS011;7742;44.320;19.820;2022-08-04T00:31:17;17.00;;;16.20;;
15281;SDS011;7742;44.320;19.820;2022-08-04T00:33:45;17.33;;;16.50;;
15281;SDS011;7742;44.320;19.820;2022-08-04T00:36:13;16.90;;;16.10;;
15281;SDS011;7742;44.320;19.820;2022-08-04T00:38:41;16.40;;;15.70;;
15281;SDS011;7742;44.320;19.820;2022-08-04T00:44:21;16.97;;;16.27;;
15281;SDS011;7742;44.320;19.820;2022-08-04T00:50:00;16.60;;;15.90;;
15281;SDS011;7742;44.320;19.820;2022-08-04T00:52:36;16.90;;;16.10;;
15281;SDS011;7742;44.320;19.820;2022-08-04T00:55:19;16.93;;;16.13;;
15281;SDS011;7742;44.320;19.820;2022-08-04T00:57:56;17.13;;;16.43;;
15281;SDS011;7742;44.320;19.820;2022-08-04T01:00:28;17.40;;;16.60;;
15281;SDS011;7742;44.320;19.820;2022-08-04T01:03:05;18.50;;;17.50;;
15281;SDS011;7742;44.320;19.820;2022-08-04T01:05:38;17.73;;;16.93;;
15281;SDS011;7742;44.320;19.820;2022-08-04T01:08:17;17.60;;;16.60;;
15281;SDS011;7742;44.320;19.820;2022-08-04T01:10:52;16.80;;;16.00;;
15281;SDS011;7742;44.320;19.820;2022-08-04T01:13:28;16.83;;;16.03;;
15281;SDS011;7742;44.320;19.820;2022-08-04T01:16:01;16.87;;;15.93;;
15281;SDS011;7742;44.320;19.820;2022-08-04T01:18:32;16.93;;;16.07;;
15281;SDS011;7742;44.320;19.820;2022-08-04T01:21:16;17.37;;;16.57;;
15281;SDS011;7742;44.320;19.820;2022-08-04T01:26:43;17.63;;;16.73;;
15281;SDS011;7742;44.320;19.820;2022-08-04T01:29:16;18.03;;;16.93;;
15281;SDS011;7742;44.320;19.820;2022-08-04T01:31:48;17.50;;;16.70;;
15281;SDS011;7742;44.320;19.820;2022-08-04T01:34:18;17.80;;;17.00;;
15281;SDS011;7742;44.320;19.820;2022-08-04T01:36:57;17.47;;;16.63;;
15281;SDS011;7742;44.320;19.820;2022-08-04T01:39:27;16.80;;;16.00;;
15281;SDS011;7742;44.320;19.820;2022-08-04T01:42:06;17.10;;;16.30;;
15281;SDS011;7742;44.320;19.820;2022-08-04T01:44:36;17.10;;;16.30;;
15281;SDS011;7742;44.320;19.820;2022-08-04T01:47:08;16.73;;;15.93;;
15281;SDS011;7742;44.320;19.820;2022-08-04T01:49:41;17.67;;;16.77;;
15281;SDS011;7742;44.320;19.820;2022-08-04T01:52:38;17.07;;;16.10;;
15281;SDS011;7742;44.320;19.820;2022-08-04T01:55:08;17.67;;;16.57;;
15281;SDS011;7742;44.320;19.820;2022-08-04T01:57:51;16.57;;;15.70;;
15281;SDS011;7742;44.320;19.820;2022-08-04T02:00:24;17.17;;;16.37;;
15281;SDS011;7742;44.320;19.820;2022-08-04T02:03:05;16.97;;;16.17;;
15281;SDS011;7742;44.320;19.820;2022-08-04T02:05:45;17.17;;;16.27;;
15281;SDS011;7742;44.320;19.820;2022-08-04T02:08:15;17.30;;;16.43;;
15281;SDS011;7742;44.320;19.820;2022-08-04T02:13:53;17.67;;;16.87;;
15281;SDS011;7742;44.320;19.820;2022-08-04T02:16:26;17.37;;;16.57;;
15281;SDS011;7742;44.320;19.820;2022-08-04T02:18:59;16.87;;;16.07;;
15281;SDS011;7742;44.320;19.820;2022-08-04T02:21:28;17.23;;;16.43;;
15281;SDS011;7742;44.320;19.820;2022-08-04T02:23:58;16.90;;;16.10;;
15281;SDS011;7742;44.320;19.820;2022-08-04T02:26:27;16.93;;;16.10;;
15281;SDS011;7742;44.320;19.820;2022-08-04T02:29:00;16.83;;;15.83;;
15281;SDS011;7742;44.320;19.820;2022-08-04T02:31:31;16.60;;;15.90;;
15281;SDS011;7742;44.320;19.820;2022-08-04T02:34:05;16.43;;;15.63;;
15281;SDS011;7742;44.320;19.820;2022-08-04T02:36:35;17.07;;;16.27;;
15281;SDS011;7742;44.320;19.820;2022-08-04T02:39:04;16.43;;;15.73;;
15281;SDS011;7742;44.320;19.820;2022-08-04T02:41:32;16.93;;;16.07;;
15281;SDS011;7742;44.320;19.820;2022-08-04T02:44:01;16.40;;;15.60;;
15281;SDS011;7742;44.320;19.820;2022-08-04T02:46:29;16.67;;;15.87;;
15281;SDS011;7742;44.320;19.820;2022-08-04T02:49:00;16.27;;;15.57;;
15281;SDS011;7742;44.320;19.820;2022-08-04T02:51:29;16.23;;;15.53;;
15281;SDS011;7742;44.320;19.820;2022-08-04T02:53:57;16.87;;;15.97;;
15281;SDS011;7742;44.320;19.820;2022-08-04T02:56:29;16.93;;;16.10;;
15281;SDS011;7742;44.320;19.820;2022-08-04T02:58:58;16.60;;;15.80;;
15281;SDS011;7742;44.320;19.820;2022-08-04T03:01:25;16.67;;;15.97;;
15281;SDS011;7742;44.320;19.820;2022-08-04T03:03:57;17.00;;;16.20;;
15281;SDS011;7742;44.320;19.820;2022-08-04T03:09:44;17.00;;;16.20;;
15281;SDS011;7742;44.320;19.820;2022-08-04T03:26:49;17.13;;;16.33;;
15281;SDS011;7742;44.320;19.820;2022-08-04T03:32:13;17.00;;;16.20;;
15281;SDS011;7742;44.320;19.820;2022-08-04T03:34:50;16.97;;;16.07;;
15281;SDS011;7742;44.320;19.820;2022-08-04T03:37:45;16.17;;;15.27;;
15281;SDS011;7742;44.320;19.820;2022-08-04T03:40:21;15.90;;;15.20;;
15281;SDS011;7742;44.320;19.820;2022-08-04T03:51:29;16.20;;;15.50;;
15281;SDS011;7742;44.320;19.820;2022-08-04T03:54:27;15.70;;;15.00;;
15281;SDS011;7742;44.320;19.820;2022-08-04T03:57:04;15.23;;;14.53;;
15281;SDS011;7742;44.320;19.820;2022-08-04T03:59:43;15.83;;;15.13;;
15281;SDS011;7742;44.320;19.820;2022-08-04T04:02:27;15.23;;;14.53;;
15281;SDS011;7742;44.320;19.820;2022-08-04T04:05:14;15.80;;;15.10;;
15281;SDS011;7742;44.320;19.820;2022-08-04T04:07:57;15.80;;;15.10;;
15281;SDS011;7742;44.320;19.820;2022-08-04T04:10:29;16.03;;;15.33;;
15281;SDS011;7742;44.320;19.820;2022-08-04T04:13:14;15.17;;;14.47;;
15281;SDS011;7742;44.320;19.820;2022-08-04T04:21:30;15.50;;;14.80;;
15281;SDS011;7742;44.320;19.820;2022-08-04T04:24:05;14.97;;;14.27;;
15281;SDS011;7742;44.320;19.820;2022-08-04T04:26:45;15.17;;;14.27;;
15281;SDS011;7742;44.320;19.820;2022-08-04T04:29:24;15.03;;;14.33;;
15281;SDS011;7742;44.320;19.820;2022-08-04T04:32:07;14.47;;;13.77;;
15281;SDS011;7742;44.320;19.820;2022-08-04T04:34:41;14.80;;;14.10;;
15281;SDS011;7742;44.320;19.820;2022-08-04T04:37:18;14.70;;;14.00;;
15281;SDS011;7742;44.320;19.820;2022-08-04T04:39:53;14.40;;;13.80;;
15281;SDS011;7742;44.320;19.820;2022-08-04T04:42:30;14.52;;;13.77;;
15281;SDS011;7742;44.320;19.820;2022-08-04T04:45:11;14.43;;;13.82;;
15281;SDS011;7742;44.320;19.820;2022-08-04T04:47:44;14.77;;;14.10;;
15281;SDS011;7742;44.320;19.820;2022-08-04T04:50:13;14.00;;;13.40;;
15281;SDS011;7742;44.320;19.820;2022-08-04T04:52:44;14.50;;;13.80;;
15281;SDS011;7742;44.320;19.820;2022-08-04T04:55:14;14.05;;;13.45;;
15281;SDS011;7742;44.320;19.820;2022-08-04T04:57:44;14.13;;;13.43;;
15281;SDS011;7742;44.320;19.820;2022-08-04T05:00:13;13.52;;;12.93;;
15281;SDS011;7742;44.320;19.820;2022-08-04T05:05:36;13.43;;;12.93;;
15281;SDS011;7742;44.320;19.820;2022-08-04T05:08:21;15.00;;;14.30;;
15281;SDS011;7742;44.320;19.820;2022-08-04T05:10:59;14.57;;;13.93;;
15281;SDS011;7742;44.320;19.820;2022-08-04T05:13:32;14.57;;;13.77;;
15281;SDS011;7742;44.320;19.820;2022-08-04T05:16:02;14.52;;;13.73;;
15281;SDS011;7742;44.320;19.820;2022-08-04T05:18:32;14.60;;;13.82;;
15281;SDS011;7742;44.320;19.820;2022-08-04T05:21:03;14.20;;;13.50;;
15281;SDS011;7742;44.320;19.820;2022-08-04T05:23:33;14.02;;;13.30;;
15281;SDS011;7742;44.320;19.820;2022-08-04T05:26:06;15.77;;;14.40;;
15281;SDS011;7742;44.320;19.820;2022-08-04T05:28:37;14.20;;;13.40;;
15281;SDS011;7742;44.320;19.820;2022-08-04T05:31:09;14.30;;;13.48;;
15281;SDS011;7742;44.320;19.820;2022-08-04T05:33:38;13.90;;;13.20;;
15281;SDS011;7742;44.320;19.820;2022-08-04T05:36:09;14.18;;;13.57;;
15281;SDS011;7742;44.320;19.820;2022-08-04T05:38:37;14.23;;;13.52;;
15281;SDS011;7742;44.320;19.820;2022-08-04T05:41:07;13.80;;;13.20;;
15281;SDS011;7742;44.320;19.820;2022-08-04T05:43:36;14.52;;;13.70;;
15281;SDS011;7742;44.320;19.820;2022-08-04T05:46:06;14.68;;;14.07;;
15281;SDS011;7742;44.320;19.820;2022-08-04T05:48:34;14.63;;;13.73;;
15281;SDS011;7742;44.320;19.820;2022-08-04T05:51:02;14.98;;;14.18;;
15281;SDS011;7742;44.320;19.820;2022-08-04T05:53:31;14.77;;;14.05;;
15281;SDS011;7742;44.320;19.820;2022-08-04T05:55:59;14.68;;;13.88;;
15281;SDS011;7742;44.320;19.820;2022-08-04T05:58:29;14.73;;;14.00;;
15281;SDS011;7742;44.320;19.820;2022-08-04T06:00:57;15.32;;;14.40;;
15281;SDS011;7742;44.320;19.820;2022-08-04T06:03:26;14.70;;;13.93;;
15281;SDS011;7742;44.320;19.820;2022-08-04T06:05:55;14.38;;;13.68;;
15281;SDS011;7742;44.320;19.820;2022-08-04T06:08:23;14.98;;;14.27;;
15281;SDS011;7742;44.320;19.820;2022-08-04T06:10:51;15.40;;;14.63;;
15281;SDS011;7742;44.320;19.820;2022-08-04T06:13:21;15.70;;;14.90;;
15281;SDS011;7742;44.320;19.820;2022-08-04T06:15:54;15.13;;;14.32;;
15281;SDS011;7742;44.320;19.820;2022-08-04T06:18:22;14.80;;;14.10;;
15281;SDS011;7742;44.320;19.820;2022-08-04T06:20:51;14.30;;;13.70;;
15281;SDS011;7742;44.320;19.820;2022-08-04T06:23:18;15.73;;;14.82;;
15281;SDS011;7742;44.320;19.820;2022-08-04T06:25:47;15.60;;;14.90;;
15281;SDS011;7742;44.320;19.820;2022-08-04T06:28:16;15.32;;;14.43;;
15281;SDS011;7742;44.320;19.820;2022-08-04T06:30:44;16.00;;;15.30;;
15281;SDS011;7742;44.320;19.820;2022-08-04T06:33:16;16.15;;;15.35;;
15281;SDS011;7742;44.320;19.820;2022-08-04T06:35:52;15.07;;;14.38;;
15281;SDS011;7742;44.320;19.820;2022-08-04T06:38:20;15.05;;;14.45;;
15281;SDS011;7742;44.320;19.820;2022-08-04T06:40:49;15.00;;;14.18;;
15281;SDS011;7742;44.320;19.820;2022-08-04T06:43:17;15.00;;;14.27;;
15281;SDS011;7742;44.320;19.820;2022-08-04T06:45:45;14.98;;;14.27;;
15281;SDS011;7742;44.320;19.820;2022-08-04T06:48:14;15.20;;;14.40;;
15281;SDS011;7742;44.320;19.820;2022-08-04T06:50:45;15.52;;;14.82;;
15281;SDS011;7742;44.320;19.820;2022-08-04T06:53:14;15.38;;;14.55;;
15281;SDS011;7742;44.320;19.820;2022-08-04T06:55:42;16.17;;;15.30;;
15281;SDS011;7742;44.320;19.820;2022-08-04T06:58:10;17.40;;;16.50;;
15281;SDS011;7742;44.320;19.820;2022-08-04T07:00:39;16.33;;;15.52;;
15281;SDS011;7742;44.320;19.820;2022-08-04T07:03:07;16.30;;;15.52;;
15281;SDS011;7742;44.320;19.820;2022-08-04T07:05:35;16.52;;;15.73;;
15281;SDS011;7742;44.320;19.820;2022-08-04T07:08:04;16.98;;;16.08;;
15281;SDS011;7742;44.320;19.820;2022-08-04T07:10:32;16.33;;;15.40;;
15281;SDS011;7742;44.320;19.820;2022-08-04T07:13:00;15.73;;;15.02;;
15281;SDS011;7742;44.320;19.820;2022-08-04T07:15:28;15.18;;;14.40;;
15281;SDS011;7742;44.320;19.820;2022-08-04T07:17:56;15.43;;;14.73;;
15281;SDS011;7742;44.320;19.820;2022-08-04T07:20:27;15.93;;;15.23;;
15281;SDS011;7742;44.320;19.820;2022-08-04T07:22:55;14.95;;;14.25;;
15281;SDS011;7742;44.320;19.820;2022-08-04T07:25:26;14.88;;;14.18;;
15281;SDS011;7742;44.320;19.820;2022-08-04T07:27:54;13.95;;;13.35;;
15281;SDS011;7742;44.320;19.820;2022-08-04T07:30:21;15.43;;;14.63;;
15281;SDS011;7742;44.320;19.820;2022-08-04T07:32:50;14.95;;;14.20;;
15281;SDS011;7742;44.320;19.820;2022-08-04T07:35:18;15.10;;;14.35;;
15281;SDS011;7742;44.320;19.820;2022-08-04T07:37:47;15.50;;;14.70;;
15281;SDS011;7742;44.320;19.820;2022-08-04T07:40:15;14.88;;;13.88;;
15281;SDS011;7742;44.320;19.820;2022-08-04T07:42:44;15.25;;;14.45;;
15281;SDS011;7742;44.320;19.820;2022-08-04T07:45:12;14.57;;;13.98;;
15281;SDS011;7742;44.320;19.820;2022-08-04T07:47:44;15.57;;;14.82;;
15281;SDS011;7742;44.320;19.820;2022-08-04T07:50:12;15.40;;;14.60;;
15281;SDS011;7742;44.320;19.820;2022-08-04T07:52:42;15.02;;;14.32;;
15281;SDS011;7742;44.320;19.820;2022-08-04T07:55:10;15.25;;;14.55;;
15281;SDS011;7742;44.320;19.820;2022-08-04T07:57:38;15.07;;;14.30;;
15281;SDS011;7742;44.320;19.820;2022-08-04T08:00:08;15.00;;;14.40;;
15281;SDS011;7742;44.320;19.820;2022-08-04T08:02:36;14.93;;;14.23;;
15281;SDS011;7742;44.320;19.820;2022-08-04T08:05:05;15.40;;;14.70;;
15281;SDS011;7742;44.320;19.820;2022-08-04T08:07:34;15.48;;;14.77;;
15281;SDS011;7742;44.320;19.820;2022-08-04T08:10:01;15.35;;;14.75;;
15281;SDS011;7742;44.320;19.820;2022-08-04T08:12:30;15.43;;;14.73;;
15281;SDS011;7742;44.320;19.820;2022-08-04T08:14:58;15.43;;;14.60;;
15281;SDS011;7742;44.320;19.820;2022-08-04T08:17:27;15.15;;;14.27;;
15281;SDS011;7742;44.320;19.820;2022-08-04T08:19:55;15.57;;;14.77;;
15281;SDS011;7742;44.320;19.820;2022-08-04T08:22:23;16.50;;;15.40;;
15281;SDS011;7742;44.320;19.820;2022-08-04T08:24:51;15.32;;;14.63;;
15281;SDS011;7742;44.320;19.820;2022-08-04T08:27:19;15.45;;;14.60;;
15281;SDS011;7742;44.320;19.820;2022-08-04T08:29:47;16.25;;;15.35;;
15281;SDS011;7742;44.320;19.820;2022-08-04T08:32:15;15.80;;;15.00;;
15281;SDS011;7742;44.320;19.820;2022-08-04T08:34:45;15.65;;;14.95;;
15281;SDS011;7742;44.320;19.820;2022-08-04T08:37:14;15.77;;;15.00;;
15281;SDS011;7742;44.320;19.820;2022-08-04T08:39:45;15.15;;;14.45;;
15281;SDS011;7742;44.320;19.820;2022-08-04T08:47:51;15.68;;;14.98;;
15281;SDS011;7742;44.320;19.820;2022-08-04T08:53:15;14.80;;;14.10;;
15281;SDS011;7742;44.320;19.820;2022-08-04T08:55:51;15.60;;;14.70;;
15281;SDS011;7742;44.320;19.820;2022-08-04T08:58:34;15.20;;;14.18;;
15281;SDS011;7742;44.320;19.820;2022-08-04T09:01:06;14.07;;;13.40;;
15281;SDS011;7742;44.320;19.820;2022-08-04T09:03:50;14.00;;;13.30;;
15281;SDS011;7742;44.320;19.820;2022-08-04T09:09:24;14.65;;;13.85;;
15281;SDS011;7742;44.320;19.820;2022-08-04T09:11:56;14.30;;;13.60;;
15281;SDS011;7742;44.320;19.820;2022-08-04T09:14:25;14.45;;;13.50;;
15281;SDS011;7742;44.320;19.820;2022-08-04T09:16:56;14.63;;;14.02;;
15281;SDS011;7742;44.320;19.820;2022-08-04T09:19:28;14.52;;;13.85;;
15281;SDS011;7742;44.320;19.820;2022-08-04T09:22:00;14.73;;;14.02;;
15281;SDS011;7742;44.320;19.820;2022-08-04T09:24:34;14.90;;;14.00;;
15281;SDS011;7742;44.320;19.820;2022-08-04T09:27:07;15.48;;;14.50;;
15281;SDS011;7742;44.320;19.820;2022-08-04T09:29:39;14.82;;;14.13;;
15281;SDS011;7742;44.320;19.820;2022-08-04T09:32:09;15.02;;;14.25;;
15281;SDS011;7742;44.320;19.820;2022-08-04T09:34:42;14.68;;;13.98;;
15281;SDS011;7742;44.320;19.820;2022-08-04T09:37:16;15.20;;;14.10;;
15281;SDS011;7742;44.320;19.820;2022-08-04T09:39:52;14.38;;;13.60;;
15281;SDS011;7742;44.320;19.820;2022-08-04T09:42:24;15.10;;;14.20;;
15281;SDS011;7742;44.320;19.820;2022-08-04T09:44:57;14.68;;;13.98;;
15281;SDS011;7742;44.320;19.820;2022-08-04T09:47:29;14.90;;;14.20;;
15281;SDS011;7742;44.320;19.820;2022-08-04T09:50:03;14.82;;;13.93;;
15281;SDS011;7742;44.320;19.820;2022-08-04T09:52:38;14.90;;;14.00;;
15281;SDS011;7742;44.320;19.820;2022-08-04T09:55:11;14.32;;;13.55;;
15281;SDS011;7742;44.320;19.820;2022-08-04T09:57:44;14.75;;;14.05;;
15281;SDS011;7742;44.320;19.820;2022-08-04T10:00:18;14.68;;;13.80;;
15281;SDS011;7742;44.320;19.820;2022-08-04T10:02:48;14.50;;;13.88;;
15281;SDS011;7742;44.320;19.820;2022-08-04T10:05:19;14.50;;;13.60;;
15281;SDS011;7742;44.320;19.820;2022-08-04T10:07:51;15.20;;;14.40;;
15281;SDS011;7742;44.320;19.820;2022-08-04T10:10:30;15.00;;;14.25;;
15281;SDS011;7742;44.320;19.820;2022-08-04T10:13:06;14.93;;;14.13;;
15281;SDS011;7742;44.320;19.820;2022-08-04T10:15:39;14.93;;;14.10;;
15281;SDS011;7742;44.320;19.820;2022-08-04T10:18:14;14.95;;;14.23;;
15281;SDS011;7742;44.320;19.820;2022-08-04T10:21:01;15.05;;;14.25;;
15281;SDS011;7742;44.320;19.820;2022-08-04T10:23:33;15.25;;;14.55;;
15281;SDS011;7742;44.320;19.820;2022-08-04T10:26:04;15.20;;;14.40;;
15281;SDS011;7742;44.320;19.820;2022-08-04T10:28:34;15.30;;;14.50;;
15281;SDS011;7742;44.320;19.820;2022-08-04T10:31:05;15.50;;;14.70;;
15281;SDS011;7742;44.320;19.820;2022-08-04T10:33:36;15.40;;;14.52;;
15281;SDS011;7742;44.320;19.820;2022-08-04T10:36:08;15.45;;;14.50;;
15281;SDS011;7742;44.320;19.820;2022-08-04T10:38:37;14.55;;;13.90;;
15281;SDS011;7742;44.320;19.820;2022-08-04T10:41:11;14.75;;;14.05;;
15281;SDS011;7742;44.320;19.820;2022-08-04T10:43:43;15.80;;;14.90;;
15281;SDS011;7742;44.320;19.820;2022-08-04T10:46:16;15.07;;;14.38;;
15281;SDS011;7742;44.320;19.820;2022-08-04T10:48:46;15.18;;;14.27;;
15281;SDS011;7742;44.320;19.820;2022-08-04T10:51:20;15.70;;;15.00;;
15281;SDS011;7742;44.320;19.820;2022-08-04T10:53:51;16.15;;;15.25;;
15281;SDS011;7742;44.320;19.820;2022-08-04T10:56:26;15.63;;;14.85;;
15281;SDS011;7742;44.320;19.820;2022-08-04T10:58:57;15.90;;;15.00;;
15281;SDS011;7742;44.320;19.820;2022-08-04T11:01:28;15.25;;;14.45;;
15281;SDS011;7742;44.320;19.820;2022-08-04T11:03:59;15.40;;;14.60;;
15281;SDS011;7742;44.320;19.820;2022-08-04T11:06:27;15.80;;;14.90;;
15281;SDS011;7742;44.320;19.820;2022-08-04T11:08:56;15.68;;;14.60;;
15281;SDS011;7742;44.320;19.820;2022-08-04T11:11:28;15.27;;;14.48;;
15281;SDS011;7742;44.320;19.820;2022-08-04T11:13:59;15.32;;;14.63;;
15281;SDS011;7742;44.320;19.820;2022-08-04T11:16:30;15.05;;;14.30;;
15281;SDS011;7742;44.320;19.820;2022-08-04T11:19:01;14.85;;;14.15;;
15281;SDS011;7742;44.320;19.820;2022-08-04T11:21:34;15.13;;;14.20;;
15281;SDS011;7742;44.320;19.820;2022-08-04T11:24:07;14.60;;;13.90;;
15281;SDS011;7742;44.320;19.820;2022-08-04T11:26:40;14.85;;;14.10;;
15281;SDS011;7742;44.320;19.820;2022-08-04T11:29:13;15.50;;;14.63;;
15281;SDS011;7742;44.320;19.820;2022-08-04T11:31:44;14.77;;;14.02;;
15281;SDS011;7742;44.320;19.820;2022-08-04T11:34:13;15.43;;;14.50;;
15281;SDS011;7742;44.320;19.820;2022-08-04T11:36:45;15.25;;;14.45;;
15281;SDS011;7742;44.320;19.820;2022-08-04T11:39:17;15.27;;;14.38;;
15281;SDS011;7742;44.320;19.820;2022-08-04T11:41:50;15.55;;;14.75;;
15281;SDS011;7742;44.320;19.820;2022-08-04T11:44:21;14.73;;;13.93;;
15281;SDS011;7742;44.320;19.820;2022-08-04T11:46:50;15.00;;;14.30;;
15281;SDS011;7742;44.320;19.820;2022-08-04T11:49:25;15.20;;;14.40;;
15281;SDS011;7742;44.320;19.820;2022-08-04T11:51:55;14.93;;;14.13;;
15281;SDS011;7742;44.320;19.820;2022-08-04T11:54:23;14.85;;;14.02;;
15281;SDS011;7742;44.320;19.820;2022-08-04T11:56:53;14.68;;;13.98;;
15281;SDS011;7742;44.320;19.820;2022-08-04T11:59:21;14.80;;;13.98;;
15281;SDS011;7742;44.320;19.820;2022-08-04T12:02:06;14.60;;;14.00;;
15281;SDS011;7742;44.320;19.820;2022-08-04T12:04:45;14.68;;;13.88;;
15281;SDS011;7742;44.320;19.820;2022-08-04T12:07:16;15.02;;;14.30;;
15281;SDS011;7742;44.320;19.820;2022-08-04T12:09:47;14.93;;;14.02;;
15281;SDS011;7742;44.320;19.820;2022-08-04T12:12:22;14.70;;;14.00;;
15281;SDS011;7742;44.320;19.820;2022-08-04T12:14:54;14.57;;;13.88;;
15281;SDS011;7742;44.320;19.820;2022-08-04T12:17:26;14.23;;;13.52;;
15281;SDS011;7742;44.320;19.820;2022-08-04T12:19:56;14.70;;;14.10;;
15281;SDS011;7742;44.320;19.820;2022-08-04T12:22:25;14.95;;;14.13;;
15281;SDS011;7742;44.320;19.820;2022-08-04T12:24:57;14.43;;;13.73;;
15281;SDS011;7742;44.320;19.820;2022-08-04T12:27:28;14.52;;;13.80;;
15281;SDS011;7742;44.320;19.820;2022-08-04T12:29:57;15.10;;;13.95;;
15281;SDS011;7742;44.320;19.820;2022-08-04T12:32:30;14.68;;;14.05;;
15281;SDS011;7742;44.320;19.820;2022-08-04T12:35:00;14.68;;;13.98;;
15281;SDS011;7742;44.320;19.820;2022-08-04T12:37:33;14.82;;;14.02;;
15281;SDS011;7742;44.320;19.820;2022-08-04T12:40:07;14.48;;;13.68;;
15281;SDS011;7742;44.320;19.820;2022-08-04T12:42:43;14.85;;;14.25;;
15281;SDS011;7742;44.320;19.820;2022-08-04T12:45:12;15.10;;;14.30;;
15281;SDS011;7742;44.320;19.820;2022-08-04T12:47:41;15.38;;;14.68;;
15281;SDS011;7742;44.320;19.820;2022-08-04T12:50:12;14.50;;;13.80;;
15281;SDS011;7742;44.320;19.820;2022-08-04T12:52:41;14.80;;;14.00;;
15281;SDS011;7742;44.320;19.820;2022-08-04T12:55:09;15.07;;;14.27;;
15281;SDS011;7742;44.320;19.820;2022-08-04T12:57:37;14.85;;;14.02;;
15281;SDS011;7742;44.320;19.820;2022-08-04T13:00:07;14.88;;;14.18;;
15281;SDS011;7742;44.320;19.820;2022-08-04T13:02:36;15.65;;;14.75;;
15281;SDS011;7742;44.320;19.820;2022-08-04T13:05:06;15.00;;;14.40;;
15281;SDS011;7742;44.320;19.820;2022-08-04T13:07:35;15.30;;;14.60;;
15281;SDS011;7742;44.320;19.820;2022-08-04T13:10:05;14.75;;;14.05;;
15281;SDS011;7742;44.320;19.820;2022-08-04T13:12:33;14.93;;;14.23;;
15281;SDS011;7742;44.320;19.820;2022-08-04T13:15:05;14.30;;;13.70;;
15281;SDS011;7742;44.320;19.820;2022-08-04T13:17:45;14.35;;;13.75;;
15281;SDS011;7742;44.320;19.820;2022-08-04T13:20:16;14.60;;;13.90;;
15281;SDS011;7742;44.320;19.820;2022-08-04T13:22:50;14.45;;;13.75;;
15281;SDS011;7742;44.320;19.820;2022-08-04T13:25:19;15.10;;;14.20;;
15281;SDS011;7742;44.320;19.820;2022-08-04T13:27:46;15.10;;;14.40;;
15281;SDS011;7742;44.320;19.820;2022-08-04T13:30:16;15.00;;;14.23;;
15281;SDS011;7742;44.320;19.820;2022-08-04T13:32:46;15.25;;;14.38;;
15281;SDS011;7742;44.320;19.820;2022-08-04T13:35:18;15.00;;;14.30;;
15281;SDS011;7742;44.320;19.820;2022-08-04T13:37:46;15.13;;;14.20;;
15281;SDS011;7742;44.320;19.820;2022-08-04T13:40:14;14.73;;;14.02;;
15281;SDS011;7742;44.320;19.820;2022-08-04T13:42:45;15.43;;;14.63;;
15281;SDS011;7742;44.320;19.820;2022-08-04T13:45:13;14.88;;;14.23;;
15281;SDS011;7742;44.320;19.820;2022-08-04T13:47:41;14.63;;;13.90;;
15281;SDS011;7742;44.320;19.820;2022-08-04T13:50:15;15.25;;;14.50;;
15281;SDS011;7742;44.320;19.820;2022-08-04T13:52:43;15.15;;;14.25;;
15281;SDS011;7742;44.320;19.820;2022-08-04T13:55:21;14.38;;;13.68;;
15281;SDS011;7742;44.320;19.820;2022-08-04T13:57:52;15.55;;;14.75;;
15281;SDS011;7742;44.320;19.820;2022-08-04T14:00:21;15.73;;;14.93;;
15281;SDS011;7742;44.320;19.820;2022-08-04T14:02:50;15.38;;;14.68;;
15281;SDS011;7742;44.320;19.820;2022-08-04T14:05:25;15.25;;;14.38;;
15281;SDS011;7742;44.320;19.820;2022-08-04T14:07:53;14.70;;;13.98;;
15281;SDS011;7742;44.320;19.820;2022-08-04T14:10:21;14.93;;;14.23;;
15281;SDS011;7742;44.320;19.820;2022-08-04T14:12:50;15.63;;;14.93;;
15281;SDS011;7742;44.320;19.820;2022-08-04T14:15:37;14.88;;;14.20;;
15281;SDS011;7742;44.320;19.820;2022-08-04T14:18:19;15.00;;;14.30;;
15281;SDS011;7742;44.320;19.820;2022-08-04T14:20:58;15.10;;;14.40;;
15281;SDS011;7742;44.320;19.820;2022-08-04T14:23:27;15.05;;;14.25;;
15281;SDS011;7742;44.320;19.820;2022-08-04T14:25:55;14.10;;;13.40;;
15281;SDS011;7742;44.320;19.820;2022-08-04T14:28:26;13.40;;;12.75;;
15281;SDS011;7742;44.320;19.820;2022-08-04T14:31:07;13.60;;;12.90;;
15281;SDS011;7742;44.320;19.820;2022-08-04T14:33:36;14.32;;;13.52;;
15281;SDS011;7742;44.320;19.820;2022-08-04T14:36:06;15.85;;;15.15;;
15281;SDS011;7742;44.320;19.820;2022-08-04T14:38:41;15.60;;;14.80;;
15281;SDS011;7742;44.320;19.820;2022-08-04T14:41:10;15.18;;;14.48;;
15281;SDS011;7742;44.320;19.820;2022-08-04T14:43:41;15.50;;;14.73;;
15281;SDS011;7742;44.320;19.820;2022-08-04T14:46:10;15.18;;;14.48;;
15281;SDS011;7742;44.320;19.820;2022-08-04T14:48:38;14.63;;;14.02;;
15281;SDS011;7742;44.320;19.820;2022-08-04T14:51:15;14.68;;;13.88;;
15281;SDS011;7742;44.320;19.820;2022-08-04T14:53:46;14.82;;;14.13;;
15281;SDS011;7742;44.320;19.820;2022-08-04T14:56:14;14.27;;;13.57;;
15281;SDS011;7742;44.320;19.820;2022-08-04T14:58:42;14.57;;;13.88;;
15281;SDS011;7742;44.320;19.820;2022-08-04T15:01:10;15.15;;;14.25;;
15281;SDS011;7742;44.320;19.820;2022-08-04T15:03:41;14.80;;;14.10;;
15281;SDS011;7742;44.320;19.820;2022-08-04T15:06:09;14.80;;;14.20;;
15281;SDS011;7742;44.320;19.820;2022-08-04T15:08:39;14.77;;;14.00;;
15281;SDS011;7742;44.320;19.820;2022-08-04T15:11:07;14.77;;;14.18;;
15281;SDS011;7742;44.320;19.820;2022-08-04T15:13:34;15.55;;;14.85;;
15281;SDS011;7742;44.320;19.820;2022-08-04T15:16:03;14.48;;;13.68;;
15281;SDS011;7742;44.320;19.820;2022-08-04T15:18:31;15.57;;;14.52;;
15281;SDS011;7742;44.320;19.820;2022-08-04T15:20:58;13.80;;;13.20;;
15281;SDS011;7742;44.320;19.820;2022-08-04T15:23:27;13.73;;;13.13;;
15281;SDS011;7742;44.320;19.820;2022-08-04T15:25:56;14.38;;;13.55;;
15281;SDS011;7742;44.320;19.820;2022-08-04T15:28:26;14.50;;;13.80;;
15281;SDS011;7742;44.320;19.820;2022-08-04T15:30:55;14.60;;;13.80;;
15281;SDS011;7742;44.320;19.820;2022-08-04T15:33:24;13.70;;;13.00;;
15281;SDS011;7742;44.320;19.820;2022-08-04T15:35:55;14.20;;;13.57;;
15281;SDS011;7742;44.320;19.820;2022-08-04T15:38:36;14.00;;;13.40;;
15281;SDS011;7742;44.320;19.820;2022-08-04T15:41:08;14.20;;;13.48;;
15281;SDS011;7742;44.320;19.820;2022-08-04T15:43:41;14.48;;;13.88;;
15281;SDS011;7742;44.320;19.820;2022-08-04T15:46:11;14.70;;;14.02;;
15281;SDS011;7742;44.320;19.820;2022-08-04T15:48:39;13.70;;;13.00;;